Time;durP1;ratioP1;P1;durP2;ratioP2;P2;SDS_P1;SDS_P2;PMS_P1;PMS_P2;Temp;Humidity;BMP_temperature;BMP_pressure;BME280_temperature;BME280_humidity;BME280_pressure;Samples;Min_cycle;Max_cycle;Signal;HPM_P1;HPM_P2
2023/01/27 00:02:08;;;;;;;;;;;;;;;3.47;100.00;102360.13;5050324;28;19978;-50
2023/01/27 00:04:33;;;;;;;;;;;;;;;3.50;100.00;102352.31;5051467;28;19923;-47
2023/01/27 00:06:59;;;;;;;;;;;;;;;3.50;100.00;102354.22;5044886;28;19921;-50
2023/01/27 00:09:24;;;;;;;;;;;;;;;3.41;100.00;102354.47;5051812;28;19917;-45
2023/01/27 00:14:33;;;;;;;;;;;;;;;3.43;100.00;102351.50;5051583;28;20335;-47
2023/01/27 00:16:58;;;;;;;;;;;;;;;3.39;100.00;102351.13;5051858;28;19913;-47
2023/01/27 00:19:23;;;;;;;;;;;;;;;3.38;100.00;102354.91;5051762;28;20311;-47
2023/01/27 00:24:35;;;;;;;;;;;;;;;3.34;100.00;102361.03;5052352;28;19923;-48
2023/01/27 00:27:01;;;;;;;;;;;;;;;3.28;100.00;102358.16;5051866;28;19913;-47
2023/01/27 00:29:26;;;;;;;;;;;;;;;3.34;100.00;102356.44;5052033;28;20000;-48
2023/01/27 00:34:35;;;;;;;;;;;;;;;3.28;100.00;102355.41;5051584;28;20209;-48
2023/01/27 00:37:00;;;;;;;;;;;;;;;3.28;100.00;102362.75;5050091;28;19920;-45
2023/01/27 00:39:26;;;;;;;;;;;;;;;3.24;100.00;102356.88;5051721;28;19912;-50
2023/01/27 00:41:51;;;;;;;;;;;;;;;3.17;100.00;102357.97;5051243;28;19917;-46
2023/01/27 00:44:16;;;;;;;;;;;;;;;3.22;100.00;102356.25;5051293;28;19970;-46
2023/01/27 00:46:41;;;;;;;;;;;;;;;3.26;100.00;102370.34;5050875;28;19970;-47
2023/01/27 00:49:07;;;;;;;;;;;;;;;3.33;100.00;102362.09;5051479;28;19921;-48
2023/01/27 00:51:33;;;;;;;;;;;;;;;3.20;100.00;102366.63;5051632;28;19924;-49
2023/01/27 00:53:58;;;;;;;;;;;;;;;3.17;100.00;102366.19;5051379;28;19916;-47
2023/01/27 00:56:23;;;;;;;;;;;;;;;3.18;100.00;102367.88;5051585;28;19912;-47
2023/01/27 00:58:48;;;;;;;;;;;;;;;3.15;100.00;102371.88;5051241;28;19948;-46
2023/01/27 01:01:15;;;;;;;;;;;;;;;3.10;100.00;102371.72;5050933;28;19913;-47
2023/01/27 01:03:40;;;;;;;;;;;;;;;3.11;100.00;102367.94;5049749;28;20314;-46
2023/01/27 01:06:08;;;;;;;;;;;;;;;3.27;100.00;102366.56;5051215;28;19989;-48
2023/01/27 01:08:34;;;;;;;;;;;;;;;3.00;100.00;102360.41;5051306;28;19961;-48
2023/01/27 01:10:59;;;;;;;;;;;;;;;3.05;100.00;102360.56;5050025;28;20006;-50
2023/01/27 01:13:26;;;;;;;;;;;;;;;3.06;100.00;102365.00;5045081;28;19943;-48
2023/01/27 01:15:51;;;;;;;;;;;;;;;3.06;100.00;102386.88;5050810;28;19912;-50
2023/01/27 01:18:16;;;;;;;;;;;;;;;3.02;100.00;102378.25;5051041;28;19939;-48
2023/01/27 01:20:42;;;;;;;;;;;;;;;2.97;100.00;102376.19;5050739;28;19999;-49
2023/01/27 01:23:08;;;;;;;;;;;;;;;2.97;100.00;102375.34;5050233;28;19920;-45
2023/01/27 01:25:34;;;;;;;;;;;;;;;2.99;100.00;102375.13;5050989;28;20354;-48
2023/01/27 01:27:59;;;;;;;;;;;;;;;2.98;100.00;102379.75;5050906;28;19923;-45
2023/01/27 01:30:26;;;;;;;;;;;;;;;2.95;100.00;102382.94;5049653;28;19925;-47
2023/01/27 01:32:52;;;;;;;;;;;;;;;2.93;100.00;102390.50;5051105;28;19912;-47
2023/01/27 01:35:18;;;;;;;;;;;;;;;2.91;100.00;102389.88;5051049;28;19921;-45
2023/01/27 01:37:43;;;;;;;;;;;;;;;2.85;100.00;102394.31;5051076;28;19913;-45
2023/01/27 01:40:11;;;;;;;;;;;;;;;2.85;100.00;102388.84;5050875;28;19920;-44
2023/01/27 01:42:51;;;;;;;;;;;;;;;2.89;100.00;102395.56;5051011;28;20011;-46
2023/01/27 01:45:35;;;;;;;;;;;;;;;2.82;100.00;102400.22;5049513;28;20299;-46
2023/01/27 01:48:12;;;;;;;;;;;;;;;2.88;100.00;102393.88;5052901;28;19913;-47
2023/01/27 01:50:39;;;;;;;;;;;;;;;2.85;100.00;102396.22;5054960;28;19916;-46
2023/01/27 01:53:05;;;;;;;;;;;;;;;2.77;100.00;102391.81;5054960;28;19913;-46
2023/01/27 01:55:33;;;;;;;;;;;;;;;2.83;100.00;102380.03;5055000;28;19959;-45
2023/01/27 01:57:58;;;;;;;;;;;;;;;2.85;100.00;102394.31;5054865;28;19917;-48
2023/01/27 02:00:24;;;;;;;;;;;;;;;2.83;100.00;102390.97;5053299;28;19913;-45
2023/01/27 02:02:50;;;;;;;;;;;;;;;2.82;100.00;102392.03;5054881;28;19912;-47
2023/01/27 02:05:15;;;;;;;;;;;;;;;2.83;100.00;102388.25;5054812;28;19924;-47
2023/01/27 02:07:45;;;;;;;;;;;;;;;2.83;100.00;102392.84;5054610;28;19917;-47
2023/01/27 02:10:11;;;;;;;;;;;;;;;2.89;100.00;102390.09;5054900;28;19913;-46
2023/01/27 02:12:36;;;;;;;;;;;;;;;2.79;100.00;102400.66;5047292;28;20283;-46
2023/01/27 02:15:02;;;;;;;;;;;;;;;2.73;100.00;102398.78;5053278;28;19976;-46
2023/01/27 02:17:28;;;;;;;;;;;;;;;2.77;100.00;102394.53;5054509;28;19998;-48
2023/01/27 02:20:06;;;;;;;;;;;;;;;2.68;100.00;102404.03;5053802;28;19967;-49
2023/01/27 02:22:31;;;;;;;;;;;;;;;2.73;100.00;102396.88;5054285;28;19948;-48
2023/01/27 02:25:01;;;;;;;;;;;;;;;2.72;100.00;102406.13;5054302;28;19956;-49
2023/01/27 02:27:26;;;;;;;;;;;;;;;2.74;100.00;102398.56;5054274;28;19919;-48
2023/01/27 02:29:51;;;;;;;;;;;;;;;2.72;100.00;102400.66;5053438;28;19913;-47
2023/01/27 02:32:25;;;;;;;;;;;;;;;2.66;100.00;102401.53;5054271;28;19912;-47
2023/01/27 02:34:52;;;;;;;;;;;;;;;2.73;100.00;102417.91;5054248;28;20425;-46
2023/01/27 02:37:18;;;;;;;;;;;;;;;2.81;100.00;102412.22;5054106;28;19967;-44
2023/01/27 02:39:44;;;;;;;;;;;;;;;2.86;100.00;102417.03;5053608;28;20027;-46
2023/01/27 02:42:11;;;;;;;;;;;;;;;2.70;100.00;102418.34;5053926;28;20336;-49
2023/01/27 02:44:36;;;;;;;;;;;;;;;2.66;100.00;102420.66;5053820;28;19912;-46
2023/01/27 02:47:01;;;;;;;;;;;;;;;2.73;100.00;102421.47;5053628;28;19924;-45
2023/01/27 02:49:26;;;;;;;;;;;;;;;2.62;100.00;102414.78;5053499;28;19991;-46
2023/01/27 02:51:52;;;;;;;;;;;;;;;2.53;100.00;102413.34;5052197;28;19978;-47
2023/01/27 02:54:17;;;;;;;;;;;;;;;2.61;100.00;102417.72;5053599;28;19916;-44
2023/01/27 02:56:42;;;;;;;;;;;;;;;2.59;100.00;102420.66;5053690;28;19912;-44
2023/01/27 02:59:07;;;;;;;;;;;;;;;2.61;100.00;102406.78;5052476;28;20011;-45
2023/01/27 03:01:33;;;;;;;;;;;;;;;2.58;100.00;102415.44;5053591;28;20455;-45
2023/01/27 03:03:59;;;;;;;;;;;;;;;2.55;100.00;102413.09;5053305;28;20007;-46
2023/01/27 03:06:25;;;;;;;;;;;;;;;2.64;100.00;102423.63;5053138;28;19916;-47
2023/01/27 03:08:50;;;;;;;;;;;;;;;2.67;100.00;102416.88;5053130;28;19912;-45
2023/01/27 03:12:18;;;;;;;;;;;;;;;2.63;100.00;102418.34;5050279;28;19916;-47
2023/01/27 03:14:00;;;;;;;;;;;;;;;2.65;100.00;102430.72;5051151;28;19916;-47
2023/01/27 03:19:09;;;;;;;;;;;;;;;2.57;100.00;102428.22;5053549;28;19926;-50
2023/01/27 03:21:34;;;;;;;;;;;;;;;2.58;100.00;102424.44;5053489;28;19912;-48
2023/01/27 03:24:00;;;;;;;;;;;;;;;2.63;100.00;102437.47;5053089;28;20004;-47
2023/01/27 03:26:25;;;;;;;;;;;;;;;2.66;100.00;102426.13;5053035;28;19920;-48
2023/01/27 03:29:53;;;;;;;;;;;;;;;2.61;100.00;102421.28;5052681;28;20322;-46
2023/01/27 03:31:35;;;;;;;;;;;;;;;2.54;100.00;102422.34;5052861;28;19919;-46
2023/01/27 03:34:00;;;;;;;;;;;;;;;2.49;100.00;102426.59;5053078;28;19913;-49
2023/01/27 03:47:22;;;;;;;;;;;;;;;2.60;100.00;102454.28;5052761;28;19920;-46
2023/01/27 03:49:48;;;;;;;;;;;;;;;2.59;100.00;102445.25;5052439;28;19916;-46
2023/01/27 03:52:13;;;;;;;;;;;;;;;2.57;100.00;102457.47;5052395;28;19938;-46
2023/01/27 03:54:38;;;;;;;;;;;;;;;2.53;100.00;102459.78;5052628;28;20226;-45
2023/01/27 03:57:04;;;;;;;;;;;;;;;2.55;100.00;102457.66;5052008;28;19917;-46
2023/01/27 03:59:30;;;;;;;;;;;;;;;2.55;100.00;102456.81;5052052;28;20367;-45
2023/01/27 04:07:22;;;;;;;;;;;;;;;2.55;100.00;102457.66;5052189;28;19957;-49
2023/01/27 04:09:48;;;;;;;;;;;;;;;2.53;100.00;102454.31;5051884;28;20083;-45
2023/01/27 04:12:13;;;;;;;;;;;;;;;2.52;100.00;102451.78;5042439;28;19999;-53
2023/01/27 04:14:41;;;;;;;;;;;;;;;2.53;100.00;102451.59;5051873;28;20250;-49
2023/01/27 04:17:10;;;;;;;;;;;;;;;2.50;100.00;102461.03;5051953;28;19924;-47
2023/01/27 04:19:35;;;;;;;;;;;;;;;2.49;100.00;102455.78;5051120;28;20331;-50
2023/01/27 04:22:01;;;;;;;;;;;;;;;2.47;100.00;102449.69;5051540;28;19913;-46
2023/01/27 04:24:26;;;;;;;;;;;;;;;2.46;100.00;102456.19;5050491;28;19943;-46
2023/01/27 04:26:59;;;;;;;;;;;;;;;2.54;100.00;102450.53;5051506;28;20331;-45
2023/01/27 04:29:26;;;;;;;;;;;;;;;2.50;100.00;102446.53;5051412;28;20241;-49
2023/01/27 04:31:51;;;;;;;;;;;;;;;2.54;100.00;102453.25;5051585;28;19951;-47
2023/01/27 04:34:16;;;;;;;;;;;;;;;2.45;100.00;102458.09;5051560;28;19962;-45
2023/01/27 04:36:42;;;;;;;;;;;;;;;2.48;100.00;102459.56;5051770;28;19916;-50
2023/01/27 04:39:07;;;;;;;;;;;;;;;2.46;100.00;102462.50;5051314;28;19916;-49
2023/01/27 04:41:33;;;;;;;;;;;;;;;2.47;100.00;102466.06;5051134;28;19912;-49
2023/01/27 04:43:58;;;;;;;;;;;;;;;2.48;100.00;102468.63;5050885;28;19924;-46
2023/01/27 04:46:23;;;;;;;;;;;;;;;2.50;100.00;102465.66;5051257;28;20376;-49
2023/01/27 04:48:48;;;;;;;;;;;;;;;2.44;100.00;102466.50;5051058;28;20015;-47
2023/01/27 04:51:13;;;;;;;;;;;;;;;2.57;100.00;102468.38;5051176;28;19913;-46
2023/01/27 04:53:39;;;;;;;;;;;;;;;2.44;100.00;102477.44;5049848;28;20337;-46
2023/01/27 04:56:06;;;;;;;;;;;;;;;2.51;100.00;102470.06;5051006;28;19920;-46
2023/01/27 04:58:31;;;;;;;;;;;;;;;2.57;100.00;102476.59;5051063;28;19920;-45
2023/01/27 05:00:56;;;;;;;;;;;;;;;2.44;100.00;102461.06;5051177;28;19947;-46
2023/01/27 05:03:22;;;;;;;;;;;;;;;2.54;100.00;102474.25;5051193;28;19941;-49
2023/01/27 05:05:47;;;;;;;;;;;;;;;2.43;100.00;102482.03;5051112;28;19921;-47
2023/01/27 05:08:12;;;;;;;;;;;;;;;2.41;100.00;102473.22;5051526;28;19916;-44
2023/01/27 05:10:37;;;;;;;;;;;;;;;2.43;100.00;102476.59;5050929;28;20434;-45
2023/01/27 05:13:03;;;;;;;;;;;;;;;2.46;100.00;102494.44;5043899;28;19920;-45
2023/01/27 05:15:29;;;;;;;;;;;;;;;2.43;100.00;102483.94;5051173;28;19925;-46
2023/01/27 05:17:54;;;;;;;;;;;;;;;2.45;100.00;102476.41;5051405;28;19916;-48
2023/01/27 05:20:20;;;;;;;;;;;;;;;2.47;100.00;102485.19;5051091;28;20336;-47
2023/01/27 05:22:45;;;;;;;;;;;;;;;2.50;100.00;102495.72;5050547;28;19913;-44
2023/01/27 05:25:10;;;;;;;;;;;;;;;2.50;100.00;102492.97;5051359;28;19940;-45
2023/01/27 05:27:36;;;;;;;;;;;;;;;2.51;100.00;102491.94;5050931;28;19960;-45
2023/01/27 05:30:01;;;;;;;;;;;;;;;2.48;100.00;102490.47;5051020;28;19943;-47
2023/01/27 05:32:26;;;;;;;;;;;;;;;2.52;100.00;102490.88;5050968;28;19920;-46
2023/01/27 05:34:51;;;;;;;;;;;;;;;2.50;100.00;102492.97;5051023;28;19912;-44
2023/01/27 05:37:17;;;;;;;;;;;;;;;2.56;100.00;102488.56;5051123;28;19913;-44
2023/01/27 05:39:42;;;;;;;;;;;;;;;2.50;100.00;102502.00;5050970;28;19940;-45
2023/01/27 05:42:07;;;;;;;;;;;;;;;2.54;100.00;102502.44;5050880;28;19921;-45
2023/01/27 05:44:32;;;;;;;;;;;;;;;2.48;100.00;102504.13;5051009;28;19942;-45
2023/01/27 05:46:57;;;;;;;;;;;;;;;2.49;100.00;102504.94;5050721;28;19917;-47
2023/01/27 05:49:23;;;;;;;;;;;;;;;2.47;100.00;102502.44;5050195;28;19912;-46
2023/01/27 05:51:48;;;;;;;;;;;;;;;2.48;100.00;102504.13;5050450;28;19917;-46
2023/01/27 05:54:13;;;;;;;;;;;;;;;2.50;100.00;102509.38;5050673;28;20284;-46
2023/01/27 05:56:39;;;;;;;;;;;;;;;2.48;100.00;102512.31;5050742;28;19913;-45
2023/01/27 05:59:05;;;;;;;;;;;;;;;2.49;100.00;102513.16;5050701;28;20336;-45
2023/01/27 06:01:31;;;;;;;;;;;;;;;2.49;100.00;102510.41;5050697;28;19919;-48
2023/01/27 06:03:56;;;;;;;;;;;;;;;2.52;100.00;102512.75;5051173;28;19990;-47
2023/01/27 06:06:23;;;;;;;;;;;;;;;2.50;100.00;102525.75;5050568;28;20360;-46
2023/01/27 06:08:48;;;;;;;;;;;;;;;2.53;100.00;102519.88;5048158;28;20027;-46
2023/01/27 06:11:14;;;;;;;;;;;;;;;2.61;100.00;102521.53;5045527;28;19912;-46
2023/01/27 06:13:39;;;;;;;;;;;;;;;2.61;100.00;102516.94;5050612;28;19916;-48
2023/01/27 06:16:06;;;;;;;;;;;;;;;2.59;100.00;102515.47;5050653;28;19923;-51
2023/01/27 06:18:31;;;;;;;;;;;;;;;2.59;100.00;102513.56;5050347;28;20045;-47
2023/01/27 06:21:00;;;;;;;;;;;;;;;2.54;100.00;102518.84;5049816;28;20032;-49
2023/01/27 06:23:26;;;;;;;;;;;;;;;2.57;100.00;102526.59;5050198;28;20314;-46
2023/01/27 06:25:52;;;;;;;;;;;;;;;2.54;100.00;102526.19;5049875;28;19919;-48
2023/01/27 06:28:17;;;;;;;;;;;;;;;2.56;100.00;102533.09;5050541;28;19912;-47
2023/01/27 06:30:45;;;;;;;;;;;;;;;2.61;100.00;102533.31;5049114;28;19931;-45
2023/01/27 06:33:10;;;;;;;;;;;;;;;2.67;100.00;102530.78;5050151;28;19912;-49
2023/01/27 06:35:37;;;;;;;;;;;;;;;2.56;100.00;102530.38;5052828;28;20042;-46
2023/01/27 06:38:03;;;;;;;;;;;;;;;2.58;100.00;102527.44;5053598;28;20364;-47
2023/01/27 06:40:29;;;;;;;;;;;;;;;2.65;100.00;102523.63;5053439;28;19920;-47
2023/01/27 06:42:54;;;;;;;;;;;;;;;2.64;100.00;102523.88;5052999;28;19917;-49
2023/01/27 06:45:19;;;;;;;;;;;;;;;2.67;100.00;102531.66;5053378;28;20312;-45
2023/01/27 06:47:45;;;;;;;;;;;;;;;2.63;100.00;102520.31;5053818;28;19956;-45
2023/01/27 06:50:10;;;;;;;;;;;;;;;2.69;100.00;102528.69;5053954;28;19919;-46
2023/01/27 06:52:36;;;;;;;;;;;;;;;2.71;100.00;102535.63;5053929;28;20382;-53
2023/01/27 06:55:01;;;;;;;;;;;;;;;2.78;100.00;102522.81;5054030;28;19926;-45
2023/01/27 06:57:27;;;;;;;;;;;;;;;2.71;100.00;102529.34;5053807;28;19912;-46
2023/01/27 06:59:52;;;;;;;;;;;;;;;2.69;100.00;102537.75;5053787;28;19912;-46
2023/01/27 07:02:17;;;;;;;;;;;;;;;2.69;100.00;102537.75;5053267;28;19952;-46
2023/01/27 07:04:43;;;;;;;;;;;;;;;2.72;100.00;102537.31;5053761;28;19948;-45
2023/01/27 07:07:08;;;;;;;;;;;;;;;2.82;100.00;102547.81;5053297;28;19968;-44
2023/01/27 07:09:33;;;;;;;;;;;;;;;2.74;100.00;102546.13;5053399;28;19917;-44
2023/01/27 07:11:59;;;;;;;;;;;;;;;2.71;100.00;102548.47;5047573;28;20173;-46
2023/01/27 07:14:24;;;;;;;;;;;;;;;2.70;100.00;102553.06;5051196;28;20361;-49
2023/01/27 07:16:49;;;;;;;;;;;;;;;2.73;100.00;102540.91;5053286;28;19916;-46
2023/01/27 07:19:15;;;;;;;;;;;;;;;2.73;100.00;102543.63;5052865;28;19955;-49
2023/01/27 07:21:40;;;;;;;;;;;;;;;2.75;100.00;102546.97;5053207;28;19913;-49
2023/01/27 07:24:06;;;;;;;;;;;;;;;2.77;100.00;102547.59;5053646;28;19924;-46
2023/01/27 07:26:31;;;;;;;;;;;;;;;2.81;100.00;102555.16;5053582;28;19916;-49
2023/01/27 07:28:56;;;;;;;;;;;;;;;2.81;100.00;102546.13;5053209;28;20388;-49
2023/01/27 07:31:22;;;;;;;;;;;;;;;2.77;100.00;102548.47;5053246;28;19916;-47
2023/01/27 07:33:47;;;;;;;;;;;;;;;2.76;100.00;102562.31;5053239;28;20372;-49
2023/01/27 07:36:12;;;;;;;;;;;;;;;2.74;100.00;102557.06;5053207;28;19959;-49
2023/01/27 07:38:37;;;;;;;;;;;;;;;2.76;100.00;102563.19;5053270;28;19918;-48
2023/01/27 07:41:06;;;;;;;;;;;;;;;2.75;100.00;102568.84;5053130;28;19913;-46
2023/01/27 07:43:31;;;;;;;;;;;;;;;2.81;100.00;102570.75;5053164;28;19936;-46
2023/01/27 07:45:57;;;;;;;;;;;;;;;2.82;100.00;102577.91;5052511;28;20329;-49
2023/01/27 07:48:22;;;;;;;;;;;;;;;2.75;100.00;102572.41;5053206;28;20019;-47
2023/01/27 07:50:47;;;;;;;;;;;;;;;2.76;100.00;102576.84;5052436;28;20311;-46
2023/01/27 07:53:12;;;;;;;;;;;;;;;2.74;100.00;102573.47;5052420;28;20015;-46
2023/01/27 07:55:38;;;;;;;;;;;;;;;2.76;100.00;102573.25;5052032;28;20008;-48
2023/01/27 07:58:03;;;;;;;;;;;;;;;2.85;100.00;102588.38;5052247;28;19916;-46
2023/01/27 08:00:29;;;;;;;;;;;;;;;2.79;100.00;102584.59;5051662;28;19921;-45
2023/01/27 08:02:54;;;;;;;;;;;;;;;2.79;100.00;102587.34;5052399;28;19917;-47
2023/01/27 08:05:21;;;;;;;;;;;;;;;2.83;100.00;102584.19;5052173;28;19916;-45
2023/01/27 08:07:46;;;;;;;;;;;;;;;2.81;100.00;102587.13;5045507;28;20454;-46
2023/01/27 08:10:12;;;;;;;;;;;;;;;2.77;100.00;102580.41;5050402;28;19913;-46
2023/01/27 08:12:37;;;;;;;;;;;;;;;2.87;100.00;102593.66;5050004;28;19959;-49
2023/01/27 08:15:02;;;;;;;;;;;;;;;2.81;100.00;102578.94;5052575;28;20372;-48
2023/01/27 08:17:28;;;;;;;;;;;;;;;2.82;100.00;102588.81;5052641;28;19931;-46
2023/01/27 08:19:53;;;;;;;;;;;;;;;2.81;100.00;102587.13;5052231;28;20257;-50
2023/01/27 08:22:21;;;;;;;;;;;;;;;2.85;100.00;102588.38;5052342;28;19927;-47
2023/01/27 08:24:47;;;;;;;;;;;;;;;2.82;100.00;102597.03;5051902;28;20372;-47
2023/01/27 08:27:12;;;;;;;;;;;;;;;2.81;100.00;102596.16;5051822;28;19920;-46
2023/01/27 08:29:38;;;;;;;;;;;;;;;2.80;100.00;102596.38;5051826;28;19913;-48
2023/01/27 08:32:03;;;;;;;;;;;;;;;2.84;100.00;102588.59;5052318;28;19912;-48
2023/01/27 08:34:28;;;;;;;;;;;;;;;2.82;100.00;102599.75;5051658;28;19952;-44
2023/01/27 08:36:53;;;;;;;;;;;;;;;2.84;100.00;102594.06;5051880;28;20427;-46
2023/01/27 08:39:18;;;;;;;;;;;;;;;2.83;100.00;102589.66;5052067;28;20341;-47
2023/01/27 08:41:44;;;;;;;;;;;;;;;2.87;100.00;102597.22;5049883;28;19912;-47
2023/01/27 08:44:09;;;;;;;;;;;;;;;2.89;100.00;102603.31;5049915;28;19913;-46
2023/01/27 08:46:34;;;;;;;;;;;;;;;2.93;100.00;102610.03;5049962;28;19919;-46
2023/01/27 08:48:59;;;;;;;;;;;;;;;2.89;100.00;102618.88;5049735;28;19966;-45
2023/01/27 08:51:24;;;;;;;;;;;;;;;2.96;100.00;102620.56;5049831;28;19922;-47
2023/01/27 08:53:50;;;;;;;;;;;;;;;2.96;100.00;102622.47;5049854;28;19912;-46
2023/01/27 08:56:15;;;;;;;;;;;;;;;2.93;100.00;102625.63;5051075;28;19919;-47
2023/01/27 08:58:41;;;;;;;;;;;;;;;2.94;100.00;102630.84;5049183;28;19930;-46
2023/01/27 09:01:06;;;;;;;;;;;;;;;2.91;100.00;102624.97;5049353;28;20003;-46
2023/01/27 09:03:32;;;;;;;;;;;;;;;2.97;100.00;102635.91;5042633;28;19916;-45
2023/01/27 09:05:58;;;;;;;;;;;;;;;2.92;100.00;102632.13;5048529;28;19924;-45
2023/01/27 09:08:23;;;;;;;;;;;;;;;2.95;100.00;102629.81;5049630;28;20364;-46
2023/01/27 09:10:48;;;;;;;;;;;;;;;3.01;100.00;102630.88;5049549;28;19953;-48
2023/01/27 09:13:15;;;;;;;;;;;;;;;3.03;100.00;102626.03;5049407;28;19920;-46
2023/01/27 09:15:42;;;;;;;;;;;;;;;3.08;100.00;102628.13;5049642;28;19924;-47
2023/01/27 09:18:07;;;;;;;;;;;;;;;3.06;100.00;102627.50;5047472;28;19913;-48
2023/01/27 09:20:35;;;;;;;;;;;;;;;3.07;100.00;102629.19;5048772;28;19923;-48
2023/01/27 09:23:01;;;;;;;;;;;;;;;3.26;100.00;102622.84;5049348;28;19917;-48
2023/01/27 09:25:26;;;;;;;;;;;;;;;3.31;100.00;102638.63;5050005;28;20268;-47
2023/01/27 09:27:55;;;;;;;;;;;;;;;3.31;99.65;102646.81;5049367;28;20023;-46
2023/01/27 09:30:21;;;;;;;;;;;;;;;3.30;99.49;102658.81;5048863;28;19916;-48
2023/01/27 09:32:46;;;;;;;;;;;;;;;3.20;99.23;102652.94;5049040;28;20281;-45
2023/01/27 09:35:11;;;;;;;;;;;;;;;3.31;100.00;102652.28;5048909;28;20380;-49
2023/01/27 09:37:40;;;;;;;;;;;;;;;3.24;99.50;102649.56;5049098;28;19952;-49
2023/01/27 09:40:11;;;;;;;;;;;;;;;3.16;99.79;102657.16;5049248;28;19916;-45
2023/01/27 09:42:45;;;;;;;;;;;;;;;3.12;99.15;102659.44;5048367;28;20403;-44
2023/01/27 09:45:11;;;;;;;;;;;;;;;3.17;100.00;102658.81;5047195;28;19916;-48
2023/01/27 09:47:48;;;;;;;;;;;;;;;3.18;100.00;102664.09;5047968;28;19913;-48
2023/01/27 09:50:24;;;;;;;;;;;;;;;3.24;99.10;102674.19;5048715;28;19913;-49
2023/01/27 09:53:02;;;;;;;;;;;;;;;3.25;99.65;102667.66;5049476;28;20011;-46
2023/01/27 09:55:37;;;;;;;;;;;;;;;3.34;99.54;102660.09;5049429;28;19913;-46
2023/01/27 09:58:21;;;;;;;;;;;;;;;3.17;98.95;102665.16;5042187;28;19940;-48
2023/01/27 10:00:46;;;;;;;;;;;;;;;3.16;99.57;102659.91;5048714;28;19916;-50
2023/01/27 10:03:22;;;;;;;;;;;;;;;3.22;99.76;102669.97;5049114;28;19916;-46
2023/01/27 10:06:06;;;;;;;;;;;;;;;3.24;99.85;102676.91;5048351;28;19921;-48
2023/01/27 10:08:46;;;;;;;;;;;;;;;3.38;98.81;102664.06;5048814;28;19935;-47
2023/01/27 10:11:25;;;;;;;;;;;;;;;3.39;99.65;102664.94;5050659;28;19974;-51
2023/01/27 10:13:59;;;;;;;;;;;;;;;3.51;98.70;102662.38;5050569;28;19999;-47
2023/01/27 10:16:44;;;;;;;;;;;;;;;3.57;98.05;102659.63;5051807;28;19952;-47
2023/01/27 10:19:23;;;;;;;;;;;;;;;3.66;98.50;102656.66;5050493;28;20006;-46
2023/01/27 10:22:04;;;;;;;;;;;;;;;3.43;98.26;102660.69;5052052;28;19923;-46
2023/01/27 10:24:35;;;;;;;;;;;;;;;3.35;97.55;102666.38;5052102;28;19920;-47
2023/01/27 10:27:07;;;;;;;;;;;;;;;3.39;98.72;102659.44;5051689;28;19917;-47
2023/01/27 10:29:43;;;;;;;;;;;;;;;3.35;97.98;102653.56;5052048;28;20080;-45
2023/01/27 10:32:18;;;;;;;;;;;;;;;3.42;98.28;102654.38;5051667;28;20299;-48
2023/01/27 10:34:49;;;;;;;;;;;;;;;3.50;98.44;102656.03;5052077;28;20007;-48
2023/01/27 10:37:14;;;;;;;;;;;;;;;3.49;98.01;102648.91;5051483;28;19926;-47
2023/01/27 10:39:45;;;;;;;;;;;;;;;3.55;98.04;102663.59;5051203;28;20283;-48
2023/01/27 10:42:16;;;;;;;;;;;;;;;3.69;97.97;102656.19;5051062;28;19923;-50
2023/01/27 10:44:51;;;;;;;;;;;;;;;3.75;97.46;102658.94;5051567;28;19962;-46
2023/01/27 10:47:35;;;;;;;;;;;;;;;3.67;97.36;102674.75;5052338;28;19919;-48
2023/01/27 10:50:05;;;;;;;;;;;;;;;3.60;97.70;102658.34;5044547;28;19912;-46
2023/01/27 10:52:36;;;;;;;;;;;;;;;3.52;98.83;102662.16;5051719;28;19928;-46
2023/01/27 10:55:27;;;;;;;;;;;;;;;3.50;98.23;102652.47;5050299;28;19917;-46
2023/01/27 10:57:59;;;;;;;;;;;;;;;3.53;98.38;102658.34;5042866;28;19934;-46
2023/01/27 11:00:34;;;;;;;;;;;;;;;3.49;98.02;102642.59;5052060;28;19913;-47
2023/01/27 11:03:09;;;;;;;;;;;;;;;3.48;98.68;102660.91;5051202;28;19931;-49
2023/01/27 11:05:42;;;;;;;;;;;;;;;3.39;98.48;102656.72;5051432;28;19970;-47
2023/01/27 11:08:26;;;;;;;;;;;;;;;3.41;98.54;102657.31;5051948;28;20478;-48
2023/01/27 11:13:41;;;;;;;;;;;;;;;3.41;98.92;102657.31;5051366;28;20410;-50
2023/01/27 11:16:12;;;;;;;;;;;;;;;3.34;98.82;102653.75;5051009;28;19920;-49
2023/01/27 11:18:37;;;;;;;;;;;;;;;3.32;99.62;102643.03;5049649;28;19916;-46
2023/01/27 11:21:03;;;;;;;;;;;;;;;3.33;99.89;102649.34;5050762;28;19917;-50
2023/01/27 11:23:29;;;;;;;;;;;;;;;3.40;100.00;102642.81;5051358;28;19924;-48
2023/01/27 11:25:55;;;;;;;;;;;;;;;3.48;98.93;102638.16;5051479;28;19913;-46
2023/01/27 11:28:28;;;;;;;;;;;;;;;3.54;99.42;102646.34;5051345;28;19924;-50
2023/01/27 11:30:59;;;;;;;;;;;;;;;3.61;99.21;102635.41;5051585;28;19928;-48
2023/01/27 11:33:36;;;;;;;;;;;;;;;3.72;98.88;102642.09;5051306;28;20000;-47
2023/01/27 11:36:01;;;;;;;;;;;;;;;3.73;97.91;102641.88;5051456;28;19932;-49
2023/01/27 11:38:26;;;;;;;;;;;;;;;3.68;97.27;102644.44;5050614;28;19920;-47
2023/01/27 11:40:52;;;;;;;;;;;;;;;3.72;97.46;102634.75;5050999;28;20395;-48
2023/01/27 11:43:23;;;;;;;;;;;;;;;3.87;97.72;102639.91;5045801;28;20110;-50
2023/01/27 11:45:50;;;;;;;;;;;;;;;3.76;96.95;102637.88;5046700;28;19956;-51
2023/01/27 11:48:16;;;;;;;;;;;;;;;3.71;97.52;102646.75;5050759;28;20352;-48
2023/01/27 11:50:42;;;;;;;;;;;;;;;3.69;97.26;102632.41;5050670;28;19938;-47
2023/01/27 11:53:21;;;;;;;;;;;;;;;3.60;96.76;102636.44;5048825;28;19923;-48
2023/01/27 11:55:51;;;;;;;;;;;;;;;3.63;97.92;102633.28;5050443;28;20011;-47
2023/01/27 11:58:22;;;;;;;;;;;;;;;3.63;97.90;102633.28;5050573;28;19917;-52
2023/01/27 12:00:52;;;;;;;;;;;;;;;3.60;97.55;102639.19;5050503;28;20188;-49
2023/01/27 12:03:22;;;;;;;;;;;;;;;3.51;96.52;102632.28;5050405;28;19939;-46
2023/01/27 12:05:51;;;;;;;;;;;;;;;3.50;97.42;102645.09;5049829;28;19917;-49
2023/01/27 12:08:36;;;;;;;;;;;;;;;3.50;97.19;102636.88;5049611;28;19919;-47
2023/01/27 12:11:21;;;;;;;;;;;;;;;3.54;97.98;102637.31;5050067;28;20379;-47
2023/01/27 12:13:48;;;;;;;;;;;;;;;3.49;97.70;102637.09;5050245;28;19967;-47
2023/01/27 12:16:13;;;;;;;;;;;;;;;3.43;97.73;102636.91;5050423;28;19916;-49
2023/01/27 12:18:46;;;;;;;;;;;;;;;3.49;97.87;102629.75;5046984;28;19916;-46
2023/01/27 12:21:12;;;;;;;;;;;;;;;3.50;97.82;102627.84;5050346;28;19956;-47
2023/01/27 12:23:46;;;;;;;;;;;;;;;3.62;97.20;102619.81;5050257;28;19947;-48
2023/01/27 12:26:11;;;;;;;;;;;;;;;3.62;96.88;102623.41;5049293;28;19920;-48
2023/01/27 12:28:57;;;;;;;;;;;;;;;3.59;95.05;102616.44;5049649;28;19913;-47
2023/01/27 12:31:28;;;;;;;;;;;;;;;3.66;97.00;102612.84;5049386;28;20300;-49
2023/01/27 12:34:01;;;;;;;;;;;;;;;3.77;96.59;102617.66;5049739;28;20022;-45
2023/01/27 12:36:26;;;;;;;;;;;;;;;3.73;95.08;102603.53;5049396;28;19913;-44
2023/01/27 12:38:54;;;;;;;;;;;;;;;3.82;96.06;102619.75;5041588;28;20053;-48
2023/01/27 12:41:22;;;;;;;;;;;;;;;3.90;96.26;102609.38;5048838;28;19920;-48
2023/01/27 12:44:01;;;;;;;;;;;;;;;4.05;95.56;102609.09;5048860;28;19999;-47
2023/01/27 12:46:27;;;;;;;;;;;;;;;4.24;94.07;102600.16;5048836;28;19916;-45
2023/01/27 12:48:58;;;;;;;;;;;;;;;4.14;93.97;102601.47;5049540;28;19920;-48
2023/01/27 12:51:35;;;;;;;;;;;;;;;4.17;92.73;102605.66;5049761;28;19916;-46
2023/01/27 12:54:33;;;;;;;;;;;;;;;4.08;93.94;102606.97;5049694;28;19975;-45
2023/01/27 12:57:03;;;;;;;;;;;;;;;4.08;94.16;102590.56;5036837;28;20421;-47
2023/01/27 12:59:28;;;;;;;;;;;;;;;4.03;93.96;102594.78;5049704;28;19916;-48
2023/01/27 13:01:59;;;;;;;;;;;;;;;4.04;93.85;102601.94;5049789;28;20011;-46
2023/01/27 13:04:25;;;;;;;;;;;;;;;4.06;93.73;102591.59;5049465;28;19917;-47
2023/01/27 13:06:56;;;;;;;;;;;;;;;4.10;94.16;102594.75;5048368;28;19917;-46
2023/01/27 13:09:21;;;;;;;;;;;;;;;3.94;94.18;102595.25;5048601;28;19924;-47
2023/01/27 13:11:46;;;;;;;;;;;;;;;3.94;94.89;102589.78;5048095;28;19916;-51
2023/01/27 13:14:15;;;;;;;;;;;;;;;3.98;94.15;102593.75;5048284;28;19928;-47